Time;durP1;ratioP1;P1;durP2;ratioP2;P2;SDS_P1;SDS_P2;PMS_P1;PMS_P2;Temp;Humidity;BMP_temperature;BMP_pressure;BME280_temperature;BME280_humidity;BME280_pressure;Samples;Min_cycle;Max_cycle;Signal;HPM_P1;HPM_P2
2023/09/20 00:02:22;;;;;;;3.35;1.80;;;20.50;87.80;;;;;;5010389;28;20026;-55
2023/09/20 00:04:48;;;;;;;4.57;1.80;;;20.50;87.80;;;;;;5026378;28;20470;-55
2023/09/20 00:07:14;;;;;;;3.03;1.77;;;20.40;87.80;;;;;;5027712;28;20080;-55
2023/09/20 00:09:40;;;;;;;3.25;2.03;;;20.40;87.90;;;;;;5027524;28;20030;-55
2023/09/20 00:12:06;;;;;;;5.57;2.17;;;20.30;87.90;;;;;;5009838;28;20099;-55
2023/09/20 00:14:32;;;;;;;4.47;2.15;;;20.40;88.00;;;;;;5026322;28;20033;-55
2023/09/20 00:17:00;;;;;;;4.13;2.50;;;20.30;87.90;;;;;;5027588;28;20033;-55
2023/09/20 00:19:25;;;;;;;3.13;2.13;;;20.30;88.00;;;;;;5026088;28;20062;-55
2023/09/20 00:21:51;;;;;;;4.63;2.15;;;20.30;88.00;;;;;;5026200;28;20037;-55
2023/09/20 00:24:16;;;;;;;4.78;1.88;;;20.30;88.10;;;;;;5027448;28;20036;-55
2023/09/20 00:26:42;;;;;;;3.35;1.80;;;20.30;88.10;;;;;;5026311;28;20030;-55
2023/09/20 00:29:08;;;;;;;3.58;1.70;;;20.30;88.10;;;;;;5027324;28;20049;-55
2023/09/20 00:31:34;;;;;;;7.18;2.38;;;20.30;88.20;;;;;;5026324;28;20477;-56
2023/09/20 00:34:02;;;;;;;4.90;1.88;;;20.20;88.20;;;;;;5026275;28;20057;-55
2023/09/20 00:36:29;;;;;;;4.25;2.03;;;20.20;88.10;;;;;;5026105;28;20100;-55
2023/09/20 00:38:57;;;;;;;3.30;1.77;;;20.20;88.10;;;;;;5027185;28;20034;-55
2023/09/20 00:41:23;;;;;;;3.55;1.92;;;20.20;88.20;;;;;;5027106;28;20037;-56
2023/09/20 00:43:52;;;;;;;4.80;1.45;;;20.20;88.30;;;;;;5009351;28;20026;-55
2023/09/20 00:46:20;;;;;;;5.65;1.38;;;20.20;88.40;;;;;;5025927;28;20018;-55
2023/09/20 00:48:47;;;;;;;4.18;1.98;;;20.10;88.30;;;;;;4993376;28;20087;-55
2023/09/20 00:51:12;;;;;;;2.88;1.88;;;20.10;88.30;;;;;;5009355;28;20064;-55
2023/09/20 00:53:38;;;;;;;5.38;1.85;;;20.10;88.40;;;;;;5008995;28;20026;-55
2023/09/20 00:56:05;;;;;;;3.75;1.70;;;20.10;88.50;;;;;;5009075;28;20053;-55
2023/09/20 00:58:31;;;;;;;2.33;1.55;;;20.10;88.50;;;;;;5009301;28;20082;-55
2023/09/20 01:00:56;;;;;;;2.47;1.40;;;20.10;88.60;;;;;;5009078;28;20490;-55
2023/09/20 01:03:22;;;;;;;3.53;1.85;;;20.10;88.60;;;;;;5009004;28;20064;-55
2023/09/20 01:05:48;;;;;;;6.53;1.73;;;20.00;88.60;;;;;;5026821;28;20026;-56
2023/09/20 01:08:14;;;;;;;4.70;1.85;;;20.00;88.50;;;;;;5024736;28;20026;-55
2023/09/20 01:10:40;;;;;;;6.55;1.65;;;20.00;88.60;;;;;;5009077;28;20025;-55
2023/09/20 01:13:07;;;;;;;6.40;1.70;;;20.00;88.70;;;;;;5025553;28;20030;-55
2023/09/20 01:15:34;;;;;;;4.03;1.50;;;20.00;88.80;;;;;;5009096;28;20025;-55
2023/09/20 01:17:59;;;;;;;4.70;1.70;;;20.00;88.80;;;;;;5025320;28;20065;-55
2023/09/20 01:20:26;;;;;;;4.90;1.60;;;19.90;88.80;;;;;;5024966;28;20041;-55
2023/09/20 01:22:54;;;;;;;2.50;1.58;;;19.90;88.90;;;;;;5025291;28;20032;-55
2023/09/20 01:25:24;;;;;;;5.32;1.90;;;19.90;88.90;;;;;;5025197;28;20030;-55
2023/09/20 01:27:50;;;;;;;3.20;1.65;;;19.90;89.00;;;;;;5026617;28;20030;-55
2023/09/20 01:30:17;;;;;;;6.00;1.52;;;19.90;89.10;;;;;;5025266;28;20026;-55
2023/09/20 01:32:43;;;;;;;4.80;1.90;;;19.90;89.00;;;;;;5027641;28;20053;-55
2023/09/20 01:35:10;;;;;;;9.43;1.85;;;19.90;89.00;;;;;;5026381;28;20030;-55
2023/09/20 01:37:36;;;;;;;3.92;1.48;;;19.90;89.00;;;;;;5025090;28;20026;-55
2023/09/20 01:40:05;;;;;;;2.97;1.60;;;19.90;89.00;;;;;;5025363;28;20454;-55
2023/09/20 01:42:31;;;;;;;3.33;1.70;;;19.90;89.00;;;;;;5026427;28;20034;-55
2023/09/20 01:44:57;;;;;;;3.72;1.55;;;19.80;89.10;;;;;;5024862;28;20046;-55
2023/09/20 01:47:23;;;;;;;4.22;1.50;;;19.80;89.10;;;;;;5025102;28;20025;-55
2023/09/20 01:49:49;;;;;;;2.28;1.63;;;19.80;89.20;;;;;;5024748;28;20049;-55
2023/09/20 01:52:14;;;;;;;4.97;2.03;;;19.80;89.20;;;;;;5008847;28;20065;-55
2023/09/20 01:54:42;;;;;;;3.42;2.20;;;19.70;89.90;;;;;;5024924;28;20225;-55
2023/09/20 01:57:07;;;;;;;3.60;2.60;;;19.70;89.30;;;;;;5026248;28;20082;-55
2023/09/20 01:59:33;;;;;;;4.88;2.47;;;19.70;89.40;;;;;;5024749;28;20030;-55
2023/09/20 02:01:59;;;;;;;3.42;2.55;;;19.80;89.50;;;;;;5024809;28;20026;-55
2023/09/20 02:04:24;;;;;;;3.40;2.20;;;19.70;89.60;;;;;;5024541;28;20030;-55
2023/09/20 02:06:50;;;;;;;3.47;2.20;;;19.70;89.50;;;;;;5026368;28;20034;-55
2023/09/20 02:09:18;;;;;;;6.88;2.13;;;19.70;89.60;;;;;;5026393;28;20033;-55
2023/09/20 02:11:43;;;;;;;3.42;2.55;;;19.70;89.70;;;;;;5025942;28;20033;-55
2023/09/20 02:14:11;;;;;;;3.63;2.25;;;19.70;89.80;;;;;;5026011;28;20033;-55
2023/09/20 02:16:37;;;;;;;2.63;1.83;;;19.60;89.80;;;;;;5026106;28;20026;-55
2023/09/20 02:19:05;;;;;;;6.68;2.47;;;19.60;89.80;;;;;;5026486;28;20048;-55
2023/09/20 02:21:31;;;;;;;2.78;1.88;;;19.60;89.90;;;;;;5028424;28;20064;-55
2023/09/20 02:23:58;;;;;;;4.28;2.70;;;19.60;89.90;;;;;;5030537;28;20029;-55
2023/09/20 02:26:23;;;;;;;4.60;2.65;;;19.60;89.90;;;;;;5028444;28;20488;-55
2023/09/20 02:28:51;;;;;;;5.50;2.58;;;19.60;90.00;;;;;;5028397;28;20029;-55
2023/09/20 02:31:18;;;;;;;3.55;2.78;;;19.60;90.00;;;;;;5029546;28;20034;-55
2023/09/20 02:33:43;;;;;;;4.38;2.65;;;19.60;90.00;;;;;;5028240;28;20036;-55
2023/09/20 02:36:11;;;;;;;2.70;2.05;;;19.60;89.90;;;;;;5028317;28;20330;-55
2023/09/20 02:38:37;;;;;;;3.08;2.50;;;19.60;90.00;;;;;;5027990;28;20026;-55
2023/09/20 02:41:03;;;;;;;3.63;2.20;;;19.60;90.00;;;;;;5029195;28;20030;-55
2023/09/20 02:43:29;;;;;;;3.72;2.45;;;19.60;90.00;;;;;;5027708;28;20113;-55
2023/09/20 02:45:55;;;;;;;5.28;3.35;;;19.50;90.00;;;;;;5028906;28;20026;-55
2023/09/20 02:48:21;;;;;;;6.80;3.28;;;19.50;90.00;;;;;;5011775;28;20435;-55
2023/09/20 02:50:46;;;;;;;8.32;3.00;;;19.50;90.10;;;;;;5029251;28;20037;-55
2023/09/20 02:53:12;;;;;;;3.42;2.53;;;19.50;90.20;;;;;;5029083;28;20030;-56
2023/09/20 02:55:39;;;;;;;3.35;2.85;;;19.50;90.20;;;;;;5029083;28;20030;-55
2023/09/20 02:58:04;;;;;;;4.13;3.30;;;19.50;90.20;;;;;;5029033;28;20026;-55
2023/09/20 03:00:31;;;;;;;3.95;3.08;;;19.50;90.20;;;;;;5027557;28;20072;-55
2023/09/20 03:03:00;;;;;;;3.92;3.10;;;19.50;90.20;;;;;;5011458;28;20026;-55
2023/09/20 03:05:33;;;;;;;3.55;2.70;;;19.50;90.30;;;;;;5027761;28;20026;-55
2023/09/20 03:08:01;;;;;;;7.75;3.03;;;19.40;90.30;;;;;;5027466;28;20449;-55
2023/09/20 03:10:28;;;;;;;6.82;2.90;;;19.40;90.70;;;;;;5028766;28;20030;-55
2023/09/20 03:13:03;;;;;;;3.28;2.63;;;19.40;90.40;;;;;;5011329;28;20036;-55
2023/09/20 03:15:28;;;;;;;4.28;2.80;;;19.40;90.50;;;;;;5028527;28;20474;-55
2023/09/20 03:18:00;;;;;;;2.95;2.42;;;19.40;90.50;;;;;;5027451;28;20052;-55
2023/09/20 03:20:26;;;;;;;6.68;2.60;;;19.40;90.50;;;;;;5027855;28;20389;-56
2023/09/20 03:22:57;;;;;;;5.18;3.10;;;19.40;90.50;;;;;;5043834;28;20018;-55
2023/09/20 03:25:23;;;;;;;10.35;3.20;;;19.40;90.50;;;;;;5028584;28;20026;-55
2023/09/20 03:27:49;;;;;;;5.72;3.17;;;19.40;90.50;;;;;;5043672;28;20382;-55
2023/09/20 03:30:20;;;;;;;6.60;3.28;;;19.40;90.60;;;;;;5027967;28;20026;-55
2023/09/20 03:32:46;;;;;;;6.70;5.30;;;19.40;90.60;;;;;;5027192;28;20386;-55
2023/09/20 03:35:14;;;;;;;8.95;5.15;;;19.40;90.60;;;;;;5028453;28;20034;-55
2023/09/20 03:37:41;;;;;;;7.10;4.68;;;19.40;90.70;;;;;;5026998;28;20030;-55
2023/09/20 03:40:10;;;;;;;5.25;4.20;;;19.40;90.70;;;;;;5026827;28;20545;-55
2023/09/20 03:42:40;;;;;;;6.57;4.35;;;19.40;90.70;;;;;;5043018;28;20029;-55
2023/09/20 03:45:12;;;;;;;6.88;3.67;;;19.30;90.70;;;;;;5028162;28;20030;-55
2023/09/20 03:47:40;;;;;;;7.55;4.40;;;19.30;90.80;;;;;;5028235;28;20025;-55
2023/09/20 03:50:12;;;;;;;7.70;4.13;;;19.30;90.80;;;;;;5028222;28;20030;-55
2023/09/20 03:52:38;;;;;;;10.07;4.15;;;19.30;90.80;;;;;;5028208;28;20030;-55
2023/09/20 03:55:08;;;;;;;4.75;3.60;;;19.30;90.90;;;;;;5027990;28;20030;-55
2023/09/20 03:57:33;;;;;;;7.65;4.00;;;19.30;90.90;;;;;;5042748;28;20054;-55
2023/09/20 03:59:59;;;;;;;8.98;3.80;;;19.20;90.90;;;;;;5042854;28;20068;-55
2023/09/20 04:02:25;;;;;;;8.88;3.92;;;19.20;90.90;;;;;;5026474;28;20089;-55
2023/09/20 04:04:51;;;;;;;7.50;5.05;;;19.20;91.00;;;;;;5027578;28;20037;-55
2023/09/20 04:07:18;;;;;;;8.60;4.45;;;19.20;91.00;;;;;;5026273;28;20370;-55
2023/09/20 04:09:44;;;;;;;10.40;4.53;;;19.20;91.00;;;;;;5026467;28;20022;-55
2023/09/20 04:12:10;;;;;;;12.63;4.70;;;19.20;91.00;;;;;;5042841;28;20038;-55
2023/09/20 04:14:36;;;;;;;9.23;5.00;;;19.20;91.00;;;;;;5026250;28;20496;-55
2023/09/20 04:17:04;;;;;;;11.88;5.18;;;19.20;91.00;;;;;;5026349;28;20034;-55
2023/09/20 04:19:30;;;;;;;10.90;5.15;;;19.20;91.00;;;;;;5042092;28;20053;-55
2023/09/20 04:21:56;;;;;;;9.95;4.63;;;19.20;91.00;;;;;;5027368;28;20034;-55
2023/09/20 04:24:22;;;;;;;8.18;4.60;;;19.20;91.00;;;;;;5026015;28;20469;-55
2023/09/20 04:26:48;;;;;;;8.57;4.55;;;19.10;91.00;;;;;;5027223;28;20032;-55
2023/09/20 04:29:14;;;;;;;16.35;5.32;;;19.20;91.10;;;;;;5027132;28;20068;-55
2023/09/20 04:31:40;;;;;;;25.42;5.80;;;19.10;91.10;;;;;;5042432;28;20026;-55
2023/09/20 04:34:05;;;;;;;31.63;6.43;;;19.20;91.20;;;;;;5017157;28;20030;-55
2023/09/20 04:36:31;;;;;;;24.98;6.00;;;19.20;91.20;;;;;;5026597;28;20038;-55
2023/09/20 04:38:57;;;;;;;35.72;6.28;;;19.10;91.20;;;;;;5026247;28;20053;-55
2023/09/20 04:41:22;;;;;;;18.75;5.22;;;19.10;91.60;;;;;;5026670;28;20034;-55
2023/09/20 04:43:48;;;;;;;22.80;6.53;;;19.00;91.30;;;;;;5026686;28;20420;-55
2023/09/20 04:46:14;;;;;;;19.70;7.15;;;19.00;91.40;;;;;;5026993;28;20029;-55
2023/09/20 04:48:40;;;;;;;42.88;8.88;;;19.00;91.40;;;;;;5026960;28;20022;-55
2023/09/20 04:51:06;;;;;;;58.38;10.77;;;18.90;91.40;;;;;;5025657;28;20103;-55
2023/09/20 04:53:33;;;;;;;67.22;12.07;;;19.00;91.40;;;;;;5042225;28;20033;-55
2023/09/20 04:55:59;;;;;;;69.80;13.10;;;19.00;91.50;;;;;;5027416;28;20033;-55
2023/09/20 04:58:25;;;;;;;60.83;12.13;;;19.00;91.50;;;;;;5025588;28;20475;-55
2023/09/20 05:00:51;;;;;;;54.63;12.23;;;18.90;91.70;;;;;;5026679;28;20401;-55
2023/09/20 05:03:17;;;;;;;44.25;11.02;;;18.90;91.40;;;;;;5041877;28;20032;-55
2023/09/20 05:05:47;;;;;;;48.53;10.18;;;18.90;91.40;;;;;;5026804;28;20030;-55
2023/09/20 05:08:15;;;;;;;47.20;9.88;;;18.90;91.50;;;;;;5041269;28;20113;-55
2023/09/20 05:10:44;;;;;;;46.65;10.18;;;18.90;91.40;;;;;;5041564;28;20477;-54
2023/09/20 05:13:09;;;;;;;42.20;9.43;;;18.90;91.50;;;;;;5026594;28;20501;-55
2023/09/20 05:15:38;;;;;;;45.83;9.27;;;18.90;91.50;;;;;;5025064;28;20034;-55
2023/09/20 05:18:04;;;;;;;46.88;9.23;;;18.90;91.50;;;;;;5026630;28;20030;-54
2023/09/20 05:20:31;;;;;;;30.92;8.45;;;18.90;91.50;;;;;;5026172;28;20057;-55
2023/09/20 05:23:04;;;;;;;38.92;8.55;;;18.90;91.50;;;;;;5024870;28;20026;-55
2023/09/20 05:25:30;;;;;;;42.33;9.13;;;18.90;91.50;;;;;;5040659;28;20030;-55
2023/09/20 05:27:56;;;;;;;46.50;9.20;;;18.90;91.50;;;;;;5041503;28;20083;-55
2023/09/20 05:30:22;;;;;;;31.08;8.30;;;18.90;91.50;;;;;;5041262;28;20042;-55
2023/09/20 05:32:51;;;;;;;42.53;8.43;;;18.90;91.50;;;;;;5007042;28;20030;-55
2023/09/20 05:35:17;;;;;;;37.20;8.60;;;18.90;91.60;;;;;;5023926;28;20034;-55
2023/09/20 05:37:43;;;;;;;41.42;8.65;;;18.90;91.70;;;;;;5024665;28;20120;-55
2023/09/20 05:40:17;;;;;;;43.58;9.90;;;18.90;91.70;;;;;;5039650;28;20065;-55
2023/09/20 05:42:50;;;;;;;39.33;9.65;;;18.80;91.70;;;;;;5022877;28;20022;-55
2023/09/20 05:45:15;;;;;;;38.25;8.95;;;18.80;91.80;;;;;;5039375;28;20018;-55
2023/09/20 05:47:44;;;;;;;39.08;8.68;;;18.80;91.90;;;;;;5023848;28;20036;-55
2023/09/20 05:50:13;;;;;;;34.30;9.05;;;18.80;91.80;;;;;;5038291;28;20030;-55
2023/09/20 05:52:43;;;;;;;49.53;8.50;;;18.80;91.80;;;;;;5042968;28;20026;-55
2023/09/20 05:55:13;;;;;;;35.28;7.78;;;18.80;91.90;;;;;;5044721;28;20077;-54
2023/09/20 05:57:41;;;;;;;34.95;8.35;;;18.80;91.90;;;;;;5048499;28;20032;-55
2023/09/20 06:00:12;;;;;;;29.90;7.03;;;18.80;92.00;;;;;;5048247;28;20021;-55
2023/09/20 06:02:37;;;;;;;25.20;6.38;;;18.80;92.00;;;;;;5020055;28;20033;-54
2023/09/20 06:05:04;;;;;;;27.15;6.07;;;18.80;92.10;;;;;;5042769;28;20045;-55
2023/09/20 06:07:30;;;;;;;20.33;5.13;;;18.70;92.30;;;;;;5018921;28;20129;-55
2023/09/20 06:09:55;;;;;;;24.83;6.25;;;18.70;92.40;;;;;;5026996;28;20457;-55
2023/09/20 06:12:21;;;;;;;25.90;6.18;;;18.60;92.50;;;;;;5023907;28;20068;-55
2023/09/20 06:14:46;;;;;;;24.23;6.95;;;18.60;92.60;;;;;;5025779;28;20025;-55
2023/09/20 06:17:12;;;;;;;18.42;5.85;;;18.60;92.70;;;;;;5027103;28;20489;-55
2023/09/20 06:19:38;;;;;;;18.30;5.63;;;18.50;92.90;;;;;;5026804;28;20050;-55
2023/09/20 06:22:03;;;;;;;16.83;4.93;;;18.50;93.00;;;;;;5026280;28;20037;-54
2023/09/20 06:24:29;;;;;;;21.58;5.30;;;18.50;93.10;;;;;;5044236;28;20089;-55
2023/09/20 06:26:54;;;;;;;20.25;5.38;;;18.50;93.20;;;;;;5046748;28;20052;-55
2023/09/20 06:29:21;;;;;;;21.67;5.47;;;18.40;93.30;;;;;;5027044;28;20021;-55
2023/09/20 06:31:46;;;;;;;18.15;5.10;;;18.40;93.40;;;;;;5034314;28;20052;-52
2023/09/20 06:34:17;;;;;;;22.02;6.00;;;18.40;93.40;;;;;;5018779;28;20022;-52
2023/09/20 06:36:43;;;;;;;22.42;4.80;;;18.30;93.40;;;;;;5029214;28;20029;-52
2023/09/20 06:39:08;;;;;;;21.50;5.03;;;18.40;93.50;;;;;;5028090;28;20029;-52
2023/09/20 06:41:34;;;;;;;16.35;4.88;;;18.40;93.60;;;;;;5029172;28;20088;-52
2023/09/20 06:44:00;;;;;;;25.23;6.00;;;18.30;93.60;;;;;;5027097;28;20040;-51
2023/09/20 06:46:25;;;;;;;27.67;5.80;;;18.30;93.70;;;;;;5026721;28;20026;-51
2023/09/20 06:48:51;;;;;;;18.33;4.90;;;18.30;93.70;;;;;;5022273;28;20442;-52
2023/09/20 06:51:17;;;;;;;38.35;6.78;;;18.40;93.80;;;;;;5033042;28;20084;-52
2023/09/20 06:53:44;;;;;;;35.83;6.30;;;18.40;93.90;;;;;;5031414;28;20025;-51
2023/09/20 06:56:09;;;;;;;32.63;6.20;;;18.40;94.00;;;;;;5023530;28;20401;-52
2023/09/20 06:58:36;;;;;;;52.45;8.30;;;18.40;94.00;;;;;;5011787;28;20026;-51
2023/09/20 07:01:04;;;;;;;34.05;7.22;;;18.40;94.00;;;;;;5043571;28;20061;-50
2023/09/20 07:03:31;;;;;;;34.72;6.50;;;18.40;94.10;;;;;;5027223;28;20021;-52
2023/09/20 07:05:57;;;;;;;34.35;6.50;;;18.40;94.10;;;;;;5026786;28;20061;-52
2023/09/20 07:08:23;;;;;;;22.80;5.97;;;18.40;94.00;;;;;;5042703;28;20022;-51
2023/09/20 07:10:50;;;;;;;38.78;6.85;;;18.40;94.00;;;;;;5039590;28;20843;-51
2023/09/20 07:13:17;;;;;;;35.58;6.43;;;18.40;94.00;;;;;;5028150;28;20022;-51
2023/09/20 07:15:43;;;;;;;39.92;6.88;;;18.40;94.00;;;;;;5028332;28;20081;-52
2023/09/20 07:18:11;;;;;;;46.97;7.18;;;18.50;94.10;;;;;;5025925;28;20040;-51
2023/09/20 07:20:39;;;;;;;35.53;7.57;;;18.50;94.20;;;;;;5031852;28;20025;-52
2023/09/20 07:23:06;;;;;;;55.90;8.90;;;18.50;94.10;;;;;;5015242;28;20030;-51
2023/09/20 07:25:35;;;;;;;49.30;8.77;;;18.40;94.10;;;;;;5024113;28;20030;-51
2023/09/20 07:28:02;;;;;;;43.17;8.07;;;18.50;94.10;;;;;;5026043;28;20093;-52
2023/09/20 07:30:31;;;;;;;50.50;7.90;;;18.50;94.30;;;;;;5025587;28;20497;-51
2023/09/20 07:32:58;;;;;;;63.03;7.68;;;18.50;94.50;;;;;;5042851;28;20033;-51
2023/09/20 07:35:26;;;;;;;53.72;9.38;;;18.50;94.50;;;;;;5033439;28;20025;-52
2023/09/20 07:37:56;;;;;;;53.78;8.77;;;18.50;94.80;;;;;;5039080;28;20121;-51
2023/09/20 07:40:31;;;;;;;41.45;8.52;;;18.50;94.90;;;;;;5026324;28;20040;-51
2023/09/20 07:43:04;;;;;;;50.85;9.02;;;18.50;94.70;;;;;;5026478;28;20105;-52
2023/09/20 07:45:40;;;;;;;62.33;8.10;;;18.50;94.90;;;;;;5033854;28;20033;-52
2023/09/20 07:48:12;;;;;;;47.25;9.25;;;18.50;94.90;;;;;;5025319;28;20030;-51
2023/09/20 07:50:41;;;;;;;57.50;8.45;;;18.60;94.90;;;;;;5022817;28;20057;-51
2023/09/20 07:53:11;;;;;;;54.67;9.35;;;18.60;94.90;;;;;;5022631;28;20044;-52
2023/09/20 07:55:41;;;;;;;58.28;8.98;;;18.60;94.90;;;;;;5015262;28;20036;-51
2023/09/20 07:58:10;;;;;;;61.80;10.05;;;18.60;94.90;;;;;;5024468;28;20100;-51
2023/09/20 08:00:45;;;;;;;65.70;11.73;;;18.60;94.80;;;;;;5039779;28;20095;-51
2023/09/20 08:03:11;;;;;;;84.88;10.68;;;18.60;94.80;;;;;;5028458;28;20069;-51
2023/09/20 08:05:37;;;;;;;62.15;10.38;;;18.60;94.90;;;;;;5039687;28;20036;-52
2023/09/20 08:08:07;;;;;;;89.85;10.77;;;18.70;94.80;;;;;;5033625;28;20026;-51
2023/09/20 08:10:37;;;;;;;76.20;11.15;;;18.70;94.80;;;;;;5039778;28;20038;-52
2023/09/20 08:13:04;;;;;;;71.65;10.57;;;18.80;95.20;;;;;;5012698;28;20034;-52
2023/09/20 08:15:32;;;;;;;80.43;10.80;;;18.80;95.20;;;;;;5018983;28;20030;-52
2023/09/20 08:20:42;;;;;;;94.63;11.52;;;18.80;95.30;;;;;;5018191;28;20056;-52
2023/09/20 09:01:37;;;;;;;48.33;8.65;;;19.00;95.60;;;;;;5020465;28;20045;-55
2023/09/20 09:04:05;;;;;;;80.57;10.50;;;19.10;95.80;;;;;;5018507;28;20037;-55
2023/09/20 09:06:31;;;;;;;79.32;10.32;;;19.00;95.90;;;;;;5021441;28;20045;-56
2023/09/20 09:08:56;;;;;;;55.35;8.50;;;19.10;95.90;;;;;;5005032;28;20029;-56
2023/09/20 09:11:24;;;;;;;73.10;9.80;;;19.10;96.00;;;;;;5006476;28;20398;-56
2023/09/20 09:13:50;;;;;;;63.58;10.50;;;19.10;96.10;;;;;;5039775;28;20051;-56
2023/09/20 09:16:18;;;;;;;61.28;8.77;;;19.10;96.20;;;;;;5032372;28;20061;-56
2023/09/20 09:18:44;;;;;;;63.63;9.55;;;19.20;96.20;;;;;;5027174;28;20025;-56
2023/09/20 09:21:12;;;;;;;78.22;9.88;;;19.20;95.90;;;;;;5025363;28;20048;-56
2023/09/20 09:23:44;;;;;;;66.40;9.82;;;19.20;95.80;;;;;;5017999;28;20030;-56
2023/09/20 09:26:10;;;;;;;66.05;9.82;;;19.30;95.90;;;;;;5039513;28;20089;-56
2023/09/20 09:28:37;;;;;;;69.18;9.02;;;19.30;95.90;;;;;;5006432;28;20022;-56
2023/09/20 09:31:03;;;;;;;54.78;8.85;;;19.30;95.90;;;;;;5006006;28;20030;-56
2023/09/20 09:33:29;;;;;;;63.15;9.15;;;19.30;95.80;;;;;;5038162;28;20045;-56
2023/09/20 09:35:54;;;;;;;62.35;8.90;;;19.30;95.80;;;;;;5022443;28;20384;-56
2023/09/20 09:38:21;;;;;;;48.28;9.25;;;19.30;96.00;;;;;;5025381;28;20034;-56
2023/09/20 09:40:53;;;;;;;61.03;8.18;;;19.40;96.10;;;;;;5023381;28;20030;-56
2023/09/20 09:43:19;;;;;;;69.95;9.68;;;19.40;96.20;;;;;;5004974;28;20092;-56
2023/09/20 09:45:49;;;;;;;61.65;9.45;;;19.40;96.20;;;;;;5030534;28;20030;-56
2023/09/20 09:48:16;;;;;;;63.08;9.38;;;19.40;96.20;;;;;;5023659;28;20088;-56
2023/09/20 09:50:45;;;;;;;64.20;9.55;;;19.50;96.10;;;;;;5026431;28;20034;-56
2023/09/20 09:53:10;;;;;;;82.05;9.88;;;19.50;96.10;;;;;;4988306;28;20038;-56
2023/09/20 09:55:38;;;;;;;76.57;9.00;;;19.50;96.00;;;;;;5023098;28;20022;-56
2023/09/20 09:58:05;;;;;;;60.17;9.02;;;19.60;96.00;;;;;;5038048;28;20041;-56
2023/09/20 10:00:32;;;;;;;57.00;9.60;;;19.60;95.80;;;;;;5029217;28;20085;-56
2023/09/20 10:02:58;;;;;;;57.95;8.65;;;19.60;95.90;;;;;;5039811;28;20049;-56
2023/09/20 10:05:24;;;;;;;63.03;8.73;;;19.60;95.80;;;;;;5007691;28;20121;-56
2023/09/20 10:07:52;;;;;;;60.38;9.05;;;19.60;95.80;;;;;;4993396;28;20474;-55
2023/09/20 10:10:22;;;;;;;58.65;7.78;;;19.60;95.70;;;;;;5024706;28;20036;-58
2023/09/20 10:12:48;;;;;;;61.90;9.10;;;19.60;95.70;;;;;;5020474;28;20029;-56
2023/09/20 10:15:15;;;;;;;58.97;9.82;;;19.70;95.80;;;;;;5035585;28;20026;-56
2023/09/20 10:17:56;;;;;;;58.40;8.77;;;19.70;95.70;;;;;;5002147;28;20030;-56
2023/09/20 10:20:22;;;;;;;47.42;7.57;;;19.70;95.70;;;;;;5036573;28;20547;-56
2023/09/20 10:22:49;;;;;;;54.97;8.27;;;19.80;95.60;;;;;;5024951;28;20041;-56
2023/09/20 10:25:34;;;;;;;61.85;8.23;;;19.80;95.50;;;;;;5021931;28;20069;-56
2023/09/20 10:28:09;;;;;;;57.25;7.93;;;19.90;95.40;;;;;;5018081;28;20042;-56
2023/09/20 10:30:55;;;;;;;42.05;7.32;;;19.90;95.30;;;;;;5022296;28;20045;-56
2023/09/20 10:33:45;;;;;;;;;;;20.00;95.20;;;;;;5021392;28;20045;-56
2023/09/20 10:36:18;;;;;;;54.35;7.78;;;20.00;95.20;;;;;;5024052;28;20311;-56
2023/09/20 10:38:45;;;;;;;49.40;8.13;;;20.10;95.20;;;;;;5054688;28;20034;-56
2023/09/20 10:41:12;;;;;;;60.05;8.20;;;20.10;95.10;;;;;;5023857;28;20042;-56
2023/09/20 10:43:38;;;;;;;83.93;9.07;;;20.10;95.00;;;;;;5033635;28;20014;-56
2023/09/20 10:46:07;;;;;;;56.05;8.60;;;20.10;94.90;;;;;;5024345;28;20036;-56
2023/09/20 10:48:32;;;;;;;72.65;9.68;;;20.20;94.90;;;;;;5036653;28;20018;-56
2023/09/20 10:50:58;;;;;;;48.55;7.97;;;20.20;94.70;;;;;;5024837;28;20064;-56
2023/09/20 10:53:45;;;;;;;66.85;9.23;;;20.20;94.80;;;;;;5025805;28;20038;-56
2023/09/20 10:56:12;;;;;;;68.30;8.65;;;20.30;94.80;;;;;;5024203;28;20041;-56
2023/09/20 10:58:42;;;;;;;60.58;8.82;;;20.30;94.80;;;;;;5024170;28;20030;-56
2023/09/20 11:01:08;;;;;;;64.63;8.98;;;20.30;94.70;;;;;;5040883;28;20033;-56
2023/09/20 11:03:34;;;;;;;53.70;7.80;;;20.30;94.60;;;;;;5016568;28;20465;-56
2023/09/20 11:06:00;;;;;;;69.82;8.77;;;20.40;94.60;;;;;;5025024;28;20113;-55
2023/09/20 11:08:26;;;;;;;79.35;10.63;;;20.40;94.40;;;;;;5041833;28;20124;-56
2023/09/20 11:10:51;;;;;;;84.25;11.18;;;20.50;94.40;;;;;;5058373;28;20037;-56
2023/09/20 11:13:19;;;;;;;67.32;9.20;;;20.50;94.40;;;;;;5015318;28;20038;-56
2023/09/20 11:15:46;;;;;;;75.45;11.38;;;20.50;94.30;;;;;;5025829;28;20041;-56
2023/09/20 11:18:15;;;;;;;66.45;9.85;;;20.60;94.20;;;;;;5011782;28;20036;-56
2023/09/20 11:20:41;;;;;;;89.47;11.40;;;20.70;94.10;;;;;;5025349;28;20147;-56
2023/09/20 11:23:06;;;;;;;79.53;10.77;;;20.80;93.80;;;;;;5031106;28;20037;-56
2023/09/20 11:25:34;;;;;;;91.30;11.73;;;20.80;93.60;;;;;;5037989;28;20057;-56
2023/09/20 11:28:00;;;;;;;98.80;12.75;;;20.90;93.40;;;;;;5046030;28;20034;-56
2023/09/20 11:30:29;;;;;;;102.22;14.32;;;21.00;93.30;;;;;;5022768;28;20068;-56
2023/09/20 11:32:55;;;;;;;71.20;11.38;;;21.00;93.30;;;;;;5021964;28;20044;-55
2023/09/20 11:35:38;;;;;;;102.88;12.38;;;21.10;93.10;;;;;;5041656;28;20030;-56
2023/09/20 11:38:07;;;;;;;94.70;13.15;;;21.10;92.90;;;;;;5033478;28;20404;-56
2023/09/20 11:40:35;;;;;;;136.70;15.95;;;21.20;92.80;;;;;;5023595;28;20467;-56
2023/09/20 11:43:06;;;;;;;119.90;15.20;;;21.20;92.70;;;;;;5025524;28;20034;-56
2023/09/20 11:45:34;;;;;;;98.55;14.05;;;21.30;92.60;;;;;;5039077;28;20068;-57
2023/09/20 11:48:05;;;;;;;127.65;15.95;;;21.30;92.40;;;;;;5053116;28;20033;-55
2023/09/20 11:50:30;;;;;;;116.05;14.25;;;21.40;92.40;;;;;;5007914;28;20030;-56
2023/09/20 11:52:57;;;;;;;123.95;16.48;;;21.50;92.20;;;;;;5040889;28;20038;-56
2023/09/20 11:55:23;;;;;;;149.50;18.25;;;21.50;92.10;;;;;;5057273;28;20026;-56
2023/09/20 11:57:48;;;;;;;187.48;22.63;;;21.60;92.20;;;;;;5032407;28;20026;-56
2023/09/20 12:00:18;;;;;;;167.95;22.55;;;21.60;92.20;;;;;;5024664;28;20052;-56
2023/09/20 12:02:44;;;;;;;223.02;28.25;;;21.80;92.10;;;;;;5006876;28;20030;-56
2023/09/20 12:05:11;;;;;;;179.38;21.33;;;21.90;92.00;;;;;;5024390;28;20029;-56
2023/09/20 12:07:36;;;;;;;148.13;18.80;;;21.90;91.80;;;;;;5060769;28;20080;-56
2023/09/20 12:10:02;;;;;;;179.20;22.00;;;21.90;91.60;;;;;;5025803;28;20038;-56
2023/09/20 12:12:31;;;;;;;159.95;21.08;;;22.00;91.60;;;;;;5023449;28;20089;-56
2023/09/20 12:14:56;;;;;;;164.25;20.65;;;22.00;91.60;;;;;;5055134;28;20026;-56
2023/09/20 12:17:22;;;;;;;161.55;22.30;;;22.10;91.30;;;;;;5042008;28;20064;-56
2023/09/20 12:19:47;;;;;;;185.50;25.08;;;22.10;91.20;;;;;;5019414;28;20026;-56
2023/09/20 12:22:14;;;;;;;209.68;26.20;;;22.10;90.90;;;;;;5017027;28;20046;-56
2023/09/20 12:24:39;;;;;;;168.70;23.05;;;22.20;90.60;;;;;;5020147;28;20028;-56
2023/09/20 12:27:05;;;;;;;189.63;22.67;;;22.30;90.40;;;;;;5024067;28;20061;-55
2023/09/20 12:29:31;;;;;;;143.10;19.95;;;22.30;90.10;;;;;;5023706;28;20080;-56
2023/09/20 12:31:56;;;;;;;148.57;20.30;;;22.40;89.30;;;;;;5012201;28;20072;-56
2023/09/20 12:34:22;;;;;;;150.30;19.67;;;22.40;88.30;;;;;;5040212;28;20125;-56
2023/09/20 12:36:48;;;;;;;170.50;19.30;;;22.50;87.30;;;;;;5025859;28;20156;-56
2023/09/20 12:39:14;;;;;;;193.95;23.05;;;22.50;87.20;;;;;;5035436;28;20029;-56
2023/09/20 12:41:42;;;;;;;179.65;24.00;;;22.60;86.60;;;;;;5007167;28;20038;-56
2023/09/20 12:44:08;;;;;;;154.02;19.92;;;22.60;86.30;;;;;;5024324;28;20072;-56
2023/09/20 12:46:36;;;;;;;191.30;24.48;;;22.70;85.30;;;;;;5027103;28;20026;-56
2023/09/20 12:49:02;;;;;;;173.15;24.83;;;22.70;85.00;;;;;;5038627;28;20022;-56
2023/09/20 12:51:28;;;;;;;213.00;25.80;;;22.80;85.00;;;;;;5023551;28;20038;-56
2023/09/20 12:53:54;;;;;;;189.60;24.55;;;22.80;84.90;;;;;;5025607;28;20028;-56
2023/09/20 12:56:19;;;;;;;175.18;22.92;;;22.90;84.40;;;;;;5032508;28;20504;-55
2023/09/20 12:58:45;;;;;;;175.75;24.08;;;23.00;84.20;;;;;;5039724;28;20018;-56
2023/09/20 13:01:10;;;;;;;174.65;23.20;;;23.00;84.00;;;;;;5059579;28;20029;-56
2023/09/20 13:03:43;;;;;;;185.55;23.23;;;23.10;83.80;;;;;;5023668;28;20145;-55
2023/09/20 13:06:09;;;;;;;176.32;23.33;;;23.10;83.60;;;;;;5022582;28;20030;-56
2023/09/20 13:08:35;;;;;;;234.05;27.45;;;23.20;83.10;;;;;;5040441;28;20049;-56
2023/09/20 13:11:00;;;;;;;190.23;25.10;;;23.20;84.00;;;;;;5057511;28;20034;-56
2023/09/20 13:13:26;;;;;;;193.13;26.08;;;23.30;83.10;;;;;;5024924;28;20034;-56
2023/09/20 13:15:52;;;;;;;267.58;31.10;;;23.30;83.10;;;;;;5023155;28;20097;-55
2023/09/20 13:18:18;;;;;;;223.02;26.65;;;23.40;83.40;;;;;;5003143;28;20037;-56